Le semi-marathon de Charleroi
Jogging Charleroi, 26/06/2011, BEL
21km - Result
21km 
Category
PosNrNameAgeNATTeamTimeTkmMoy.PlaceNameCity
1.189PLATBROOD Paul40BEL1:18:053:44 16.141v1hTRAZEGNIES
2.4833PASQUE Fabrice35BELRRT CHATELET1:20:123:50 15.711seh
3.2AELTERMAN Jacky Aelterman42BEL1:21:383:54 15.442v1hHAM-SUR-HEURE
4.237VAN DEN BERGH Alain49BEL1:25:154:04 14.783v1hCOURCELLES
5.4809YAGOUBI Mohammed19BEL1:25:404:05 14.712sehBRUXELLES
6.4869VAN DE VELDE Luc55BELGO TO RUN1:25:514:06 14.681v2h
7.85FARMER Jarlath37IRL1:26:094:07 14.633sehCO. ARMAGH
8.124JOURY Frédéric38FRA1:26:364:08 14.554sehMASNUY-ST-JEAN
9.4862HOTCHAMPS Vincent47BELESM1:27:174:10 14.444v1h
10.229THIEBAUX Thierry46BEL1:29:424:17 14.055v1hCHARLEROI
11.4853TRAINA Christophe39BELCPMV1:30:194:19 13.955sehGERPINNES
12.188PIRET Pascal51BEL1:30:454:20 13.892v2hDURBUY
13.4840GUERET Alain48BELCONS-GRUMIAUX1:31:314:22 13.776v1hMARCINELLE
14.238VAN DEN BERGH Steve36BEL1:31:504:23 13.726sehJUMET
15.251WILSON Simon41GBR1:31:594:23 13.707v1hBRUXELLES
16.70DERCQ Frederic37BELO2 MAX1:32:044:24 13.697sehMONT-SUR-MARCHIENNE
17.127KOWALCZYK Benoit26BEL1:32:054:24 13.688sehHOUDENG-GOEGNIES
18.4808FALLAHI Abderrahim48MARDELHAIZE1:32:144:24 13.668v1hBRUXELLES
19.4884RAMI Said39BELUAC1:33:034:26 13.549sehCHARLEROI
20.7BEGUIN Olivier36BELNCFYC1:33:184:27 13.5110sehPONT-A-CELLES
21.4830GUILLAUMS Michel441:34:014:29 13.409v1h
22.4805CIRELLI Mario59BELCRAC CHARLEROI1:34:344:31 13.323v2hJUMET
23.4892VOGLET Bisimwa38BELQ-JAT1:34:434:31 13.3011sehBRUXELLES
24.164MICHOTTE Marc48BEL1:34:544:32 13.2810v1h
25.205ROEKAERTS Christopher27BELCPMV1:35:074:32 13.2512sehTARCIENNE
26.4804ETIENNE Bernard Pascal49BEL1:35:104:32 13.2411v1hBLEGNY
27.101GILLIEAUX Alain42BELO2 MAX1:35:264:33 13.2012v1hMONT-SUR-MARCHIENNE
28.170MONIOTTE Gilles-Antoine41BEL1:35:304:33 13.2013v1hVEDRIN
29.11BLANCHARD Pol17BEL1:36:004:35 13.1313sehTHUILLIES
30.4861COVOLAN Sergio49ITA1:36:094:35 13.1114v1hMARCINELLE
31.4839GILLES Jean-Guy641:36:194:36 13.081v3h
32.98GÉRARD Jérémy32BEL1:36:314:36 13.0614sehMONTIGNY LE TILLEUL
33.4826VAN DER AART Harry60BEL1:36:384:37 13.042v3hLANAKEN
34.4849GYSENS Philippe31BELNAC1:36:474:37 13.0215seh
35.6BASILE Luca26BEL1:37:104:38 12.9716sehBOUFFIOULX
36.4847CASIDDU Antonio27BELSRI CHARLEROI1:37:214:39 12.9417sehBOUFFIOULX
37.21BRASSEUR Frank39BEL1:37:394:39 12.9018sehNALINNES
38.4868STEINIER Thierry49BELJCHSH1:37:424:40 12.9015v1hJUMET
39.92FRANÇOIS Stéphane25BEL1:38:344:42 12.7819sehFLORENNES
40.137LECOMTE Denis43BEL1:39:154:44 12.7016v1hFURNAUX
41.102GODART Benoit40BEL1:39:304:45 12.6617v1hTHIMÉON
42.4810KINDERMANS Jean-Pierre48BELNAC1:39:454:45 12.6318v1hGOUY-LEZ-PIÉTON
43.223STASSIN Francis56BEL1:39:554:46 12.614v2hGOUY-LEZ-PIETON
44.192PREVOT Laurent38BELSERVICE INCENDI1:40:294:48 12.5420sehPHILIPPEVILLE
45.150MAMMERICKX Francis63BEL1:41:014:49 12.473v3h
46.129LAAMOUNI El Hassan52BEL1:41:034:49 12.475v2h
47.4875PREYAT Nicolas26BEL1:41:204:50 12.4321seh
48.4837STEINIER Frederic38BEL1:41:264:50 12.4222sehJAMBES
49.111HANNECART Raymond63BEL1:41:314:51 12.414v3hTRAZEGNIES
50.23BRIGANTE André55BEL1:41:354:51 12.406v2h
DNF: did not finish; DSQ: disqualified; Speed in km/h
16/12/2017 - 11:10 - 301 Entries
ChronoRace - Electronic Timing SPRL
http://www.chronorace.be

Page 1 / 7  
Le semi-marathon de Charleroi
Jogging Charleroi, 26/06/2011, BEL
21km - Result
21km 
Category
PosNrNameAgeNATTeamTimeTkmMoy.PlaceNameCity
51.4863VAN RANSBEEK Guy50BELHT0111:41:424:51 12.397v2h
52.224STEVENS Tanguy38BELJOGING CLUB HAM1:41:574:52 12.3623sehPHILIPPEVILLE
53.4860GHESQUIERE Patrick40BEL1:42:044:52 12.3519v1hCHARLEROI
54.4889VAN MARCKE Frédéric46BEL1:42:164:53 12.3220v1hBRUXELLES
55.4821CIAMORRINI Zopito42BEL1:42:244:53 12.3121v1h
56.4818FROUSSEAU Laurence32THEODO TEMPO1:42:264:53 12.301dam
57.193PROUVÉ Alain37BEL1:42:484:54 12.2624sehLESVE
58.198RENAUX Olivier38BEL1:42:514:54 12.2525sehHENSIES
59.207ROOS Joel43BEL1:43:014:55 12.2322v1hFRASNES-LEZ-AM.
60.4894BUCCI Gabriele491:43:074:55 12.2223v1h
61.175NSENGIMANA Theo21BEL1:43:134:55 12.2126sehFLOBECQ
62.122JANUTH Thierry42BEL1:43:134:55 12.2124v1hBINCHE
63.4873SALEMI Gregory35BEL1:43:224:56 12.1927seh
64.201FRICARD Karen31BEL1:43:224:56 12.192damBRUXELLES
65.36CHAUSSIER Fabrice43BEL1:44:034:58 12.1125v1hPIETON
66.214SCHEPENS Dominique39BELJCHSH1:44:304:59 12.0628sehCHÂTELET
67.4877DI COSMO Jonathan27BEL1:44:354:59 12.0529seh
68.225STIERS Olivier31BEL1:44:394:59 12.0430sehGERPINNES
69.4823GILSON Didier50BEL1:44:505:00 12.028v2hBOUFFIOULX
70.32CATOIRE Bernard47BEL1:44:565:00 12.0126v1hGILLY
71.197RELEKOM Olivier39BEL1:44:575:00 12.0131sehHUY
72.4878MICHAUX Fabrice47BEL1:45:435:03 11.9227v1h
73.4790LECLEF Thomas27BEL1:45:465:03 11.9132seh
74.4879BISCAGLIA Frédéric31BELUT1:45:535:03 11.9033seh
75.4852FPIERRET Anne36BEL1:46:005:03 11.891ai1
76.132LAURENT Vincent49BEL1:46:065:04 11.8828v1hGOUTROUX
77.232TRGO Alain48BELNAC1:46:145:04 11.8629v1hNIVELLES
78.4843CASSART Jean Luc53BELJOGGING ET NATU1:46:225:04 11.859v2hLODELINSART
79.113HEMERYCK Pierre55BEL1:46:295:05 11.8310v2h
80.49DAMBOIS Thierry42BELJE COURS POUR M1:46:495:06 11.8030v1hREVES
81.54DE VOOGHT Yves30BEL1:47:055:06 11.7734sehGOUY-LEZ-PIETON
82.220SKARLIDIS Vassilios43GRC1:47:155:07 11.7531v1hLIMELETTE
83.120JACQUET Philippe48BEL1:47:205:07 11.7432v1hMARCINELLE
84.246FVRAY Valérie37BEL1:47:295:08 11.722ai1ANDERLUES
85.118HORLAIT Jean-Luc40BEL1:47:305:08 11.7233v1hANDERLUES
86.123JASKULSKI Dariusz31POL1:47:395:08 11.7035sehPRZYLEP
87.45FCOURBET Annick46BEL1:47:425:08 11.701ai2FONTAINE-L'EVEQUE
88.34CHARBONNIER Olivier38BEL1:47:485:08 11.6936sehJUMET
89.4871CULOT Jerome34BEL1:48:055:09 11.6637seh
90.4803ROSSI Tino51BEL1:48:095:09 11.6511v2hLODELINSART
91.4828BOUFFIOUX Alain52BELCOURIRPOURLEPLA1:48:225:10 11.6312v2hOLNE
92.117HOFSTEENGE Piet37NLDBIRG1:48:325:11 11.6138sehMONS
93.172MOUYART Philippe44BEL1:49:105:12 11.5434v1hTHY-LE-CHÂTEAU
94.4789BURTON Ivan42BEL.BE TEAM1:49:195:13 11.5335v1hBOUGE
95.167MONFORT Philippe44BEL1:49:375:14 11.4936v1hECAUSSINES
96.4872MIRAGLIA Emmanuel31BEL1:49:455:14 11.4839seh
97.135LECLEIRE Miguel43BEL1:49:595:15 11.4637v1hST- JOSSE
98.241FVANVLASSELAER Cecile32BEL1:50:225:16 11.423damWAREMME
99.216SCHILLACI Franco41BEL1:50:395:17 11.3938v1h
100.4890EL KRAICHI Aziz33BEL1:50:445:17 11.3840seh
DNF: did not finish; DSQ: disqualified; Speed in km/h
16/12/2017 - 11:10 - 301 Entries
ChronoRace - Electronic Timing SPRL
http://www.chronorace.be

Page 2 / 7  
Le semi-marathon de Charleroi
Jogging Charleroi, 26/06/2011, BEL
21km - Result
21km 
Category
PosNrNameAgeNATTeamTimeTkmMoy.PlaceNameCity
101.4883ATTOUT Olivier54SAUVAGE TEAM1:50:455:17 11.3813v2h
102.4819SAMYN Benjamin30BEL1:50:465:17 11.3841seh
103.4857CECCOTTE Ludovic21BEL1:50:485:17 11.3742seh
104.179OLIVIER Pierre-Henry60BEL1:50:575:17 11.365v3h
105.107GONZALEZ Jose67BEL1:51:035:18 11.356v3h
106.187PIERARD Alain56BEL1:51:345:19 11.2914v2hMARCINELLE
107.248WARTEL Alain50BELJCPMF1:51:345:19 11.2915v2hMONTIGNY/LE/TILLEUL
108.191PRAIL Christian61BEL1:51:355:19 11.297v3hGOZÉE
109.4814DEWATTINE Marc45BEL1:51:365:19 11.2939v1hMORLANWELZ
110.4859DE COSTER Patrick54BELFPS1:51:425:20 11.2816v2hLODELINSART
111.10BEUN Sebastien30BEL1:51:445:20 11.2843sehLEERS-ET-FOSTEAU
112.4854LEJEUNE Christian52FRA1:52:135:21 11.2317v2hANDERLUES
113.112HARDMAN Willy50BEL1:52:185:21 11.2218v2hCHASTRE
114.204ROBIE Christian60BELJE COURS POUR M1:52:355:22 11.198v3hJAMIOULX
115.99FGEVENOIS Marie-Rose61BELCOURIR ENSEMBLE1:52:575:23 11.161ai3LES BONS VILLERS
116.87FERAUCHE Jean-Marie62BELCOURIR ENSEMBLE1:52:585:23 11.159v3hLES BONS VILLERS
117.221SORTAIS Jérôme41FRA1:53:295:25 11.1040v1hBOUGE
118.51FDE BAETS Sarah41BEL1:53:305:25 11.103ai1
119.4886DEPAPE Jean Claude54JOGGING ET NATU1:53:515:26 11.0719v2h
119.136LECLEIRE Patrick40BEL1:53:515:26 11.0741v1hST - JOSSE
121.81DRYGALSKI Michel67BEL1:53:585:26 11.0610v3hCOUILLET
122.4827DREMT Joep61NLD1:54:075:27 11.0411v3h
123.147MACQUART Maxime22BEL1:54:085:27 11.0444sehYVES-GOMEZEE
124.75DI PRIMIO Luciano48BEL1:54:085:27 11.0442v1h
125.173NEGA Guy65BEL1:54:285:28 11.0112v3h
126.184PATERNOTTE Fabrice42BEL1:54:345:28 11.0043v1hLABUISSIERE
127.209RUCQUOY Vincent33BEL1:54:435:28 10.9845sehBOUFFIOULX
128.4800COURTOY Jean-Marie50BELATD QUART MONDE1:54:485:28 10.9820v2hLIMELETTE
129.4792FCOURTOY Jeanne271:54:485:28 10.984dam
130.151MANCHEL Patrick36BELSNCB1:55:015:29 10.9646sehFRAMERIES
131.168MONFORT Valentin16BEL1:55:055:29 10.9547sehECAUSSINES
132.40CLOQUET Pascal48BEL1:55:245:30 10.9244v1hMARCINELLE
133.5BACCATI Jean Pierre52ITAAUCUN1:55:275:30 10.9121v2hCOUILLET
134.227SWENNEN Gilbert61BEL1:55:325:31 10.9113v3hHUY
135.1ADNET Benoît34BEL1:55:415:31 10.8948sehWOLUWÉ-SAINT-LAMBERT
136.4888GANTY Julien27BEL1:55:475:31 10.8849seh
137.62DELBRASSINNE Denis48BEL1:55:475:31 10.8845v1hUCCLE
138.93FGAILLARD Caroline35BEL1:55:485:31 10.884ai1JAMIOULX
139.190POTY Luc63BEL1:55:575:32 10.8714v3hMONT SUR MARCHIENNE
140.4822LESKIN Nicolas39BEL1:56:025:32 10.8650seh
141.159MASSON Saji33BEL1:56:105:32 10.8551sehLOUVAIN-LA-NEUVE
142.79DORVAL Roland48BEL1:56:125:32 10.8446v1hMEEFFE
143.4791LECLEF Julien30BEL1:56:165:33 10.8452sehCHARLEROI
144.4801FSCHOSSE Nancy381:56:165:33 10.845ai1
145.245FVERVY Quentin24BEL1:56:305:33 10.825damSOMZÉE
146.219SIMONART Axel49BELJCPMF WOLUWE1:56:425:34 10.8047v1hBRUXELLES
147.20FBOZZOLAN Julie30BEL1:57:035:35 10.776damECAUSSINNES
148.183PATERNOSTRE Jean-Jacques49BEL1:57:075:35 10.7648v1hJUMET
149.4855SERAFIN Lorenzo32BEL1:57:105:35 10.7553seh
150.13BNOUN Rida36BEL1:57:275:36 10.7354sehMARCINELLE
DNF: did not finish; DSQ: disqualified; Speed in km/h
16/12/2017 - 11:10 - 301 Entries
ChronoRace - Electronic Timing SPRL
http://www.chronorace.be

Page 3 / 7  
Le semi-marathon de Charleroi
Jogging Charleroi, 26/06/2011, BEL
21km - Result
21km 
Category
PosNrNameAgeNATTeamTimeTkmMoy.PlaceNameCity
151.26BURNY Roger54BELCOURIR ENSEMBLE1:57:285:36 10.7322v2hCHARLEROI
152.243VERLAINE Daniel60BEL1:58:205:39 10.6515v3hGOZEE
153.4842VIOLA Joseph34BELBC MANAGE1:58:585:40 10.5955seh
154.84EVEN Valérian23BEL1:59:195:41 10.5656sehARLON
155.4831FHOSLET Corine45BEL1:59:235:42 10.562ai2
156.44COLONVAL Alain55BEL1:59:235:42 10.5523v2hNALINNES
157.4832DEGACHI Samir45BEL1:59:245:42 10.5549v1h
158.4815FBURY Sabine48BELJC HAM SUR HEUR1:59:245:42 10.553ai2JAMIOULX
159.4870HANSET Benoit46BEL1:59:435:43 10.5350v1hCHATELET
160.4885AOUST Rudy31BEL2:00:015:43 10.5057seh
161.41CLOUX Joel42BEL2:00:225:44 10.4751v1hBIERWART
162.4846HAINAUT Charles52BEL2:00:365:45 10.4524v2hGERPINNES
163.142LEROY Daniel53BEL2:00:415:45 10.4425v2hLEERS-ET-FOSTEAU
164.250WILMART Gilles34BELCOURIR ENSEMBLE2:00:585:46 10.4258sehFORCHIES-LA-MARCHE
165.38FCHIUSANO Maria -Teresa37BEL2:01:085:47 10.406ai1DAMPREMY
166.162MERTENS Christian55BEL2:02:055:49 10.3226v2hSINT-PIETEERS-LEEUW
167.4891VAN HECKE Georges Victor57BEL2:02:065:49 10.3227v2hSINT-PIETERS-LEEUW
168.108FGOSSET Claudine51BEL2:02:085:49 10.324ai2DURBUY
169.252LOMBARD Christian43BEL2:02:335:51 10.2852v1hLA LOUVIERE
170.126FKEAN Louise43BELJCPM2:02:355:51 10.287ai1COUILLET
171.196FREINQUET Françoise52BELJCPMF2:02:355:51 10.285ai2JUMET
172.71FDEREPPE Magali34BEL2:03:015:52 10.247damATH
173.4880MERCANTE X33BELGAMBINO TEAM2:03:015:52 10.2459seh
174.215SCHIFONE Gilberto35ITAMONDIA2:03:095:52 10.2360sehHAM SUR HEURE
175.166MOLINO Loris30BEL2:03:095:52 10.2361sehMARCINELLE
176.52FDE SMET Anne40BEL2:03:165:53 10.228ai1WOLUWE SAINT LAMBERT
177.4836DONNAY Luc38BELSNCB HOLDING2:03:215:53 10.2262sehMARCINELLE
178.155MARTIN François25BEL2:04:015:55 10.1663sehERPENT
179.158MASSON David30BEL2:04:015:55 10.1664sehGERPINNES
180.131FLAMBERT Bernadette62BEL2:04:175:56 10.142ai3LA LOUVIERE
181.242FVERHAEGHE Virginie36BEL2:04:365:56 10.119ai1ATH
182.24BROMAN Frederic39BEL2:04:395:57 10.1165sehTHUIN
183.106GOMRÉE Laurent38BEL2:04:435:57 10.1066sehMONTIGNY-LE-TILLEUL
184.226SURAY Philippe50BEL2:04:455:57 10.1028v2hMONTIGNY LE TILLEUL
185.91FOUCART Pierre28BEL2:04:485:57 10.1067sehCHARLEROI
186.60DELAFONTAINE André49BEL2:04:545:57 10.0953v1hBRAY
187.35CHARLES Valéry37BEL2:04:575:57 10.0868sehMARCINELLE
188.154MARTIN Cédric27BEL2:04:595:58 10.0869sehSPY
189.163FMICHEL Martine46BEL2:05:015:58 10.086ai2CHARLEROI
190.17BOSMANS Alain45BELJCHSH2:05:085:58 10.0754v1hJAMIOULX
191.236VAN DAMME Daniel62BEL2:05:365:59 10.0316v3hTHUIN
192.114HENRARD Frederic34BEL2:05:586:00 10.0070sehJUMET
193.145LESSIDA Laurent37FRA2:06:026:01 10.0071sehSAUVENIERE
194.39CLOQUET Maxime15BEL2:06:206:01 9.9772sehMARCINELLE
195.4850MONTANTE Quentin25BEL2:06:226:02 9.9773seh
196.200REYNDERS Christophe40BELJE COURS POUR M2:06:256:02 9.9755v1hLIGNY
197.165MIESSE Louis57BEL2:06:326:02 9.9629v2hNIVELLES
198.169MONGIELLO Corrado53ITA2:06:346:02 9.9630v2hGILLY
199.139LEMPEREUR Jean-Philippe48BEL2:06:366:02 9.9556v1hBERSILLIES-L'ABB.
200.4856ALEXIS Vincent35BEL2:06:406:02 9.9574sehMONT-SUR-MARCHIENNE
DNF: did not finish; DSQ: disqualified; Speed in km/h
16/12/2017 - 11:10 - 301 Entries
ChronoRace - Electronic Timing SPRL
http://www.chronorace.be

Page 4 / 7  
Le semi-marathon de Charleroi
Jogging Charleroi, 26/06/2011, BEL
21km - Result
21km 
Category
PosNrNameAgeNATTeamTimeTkmMoy.PlaceNameCity
201.4835RENARDO Gianfranco38CXR2:06:416:02 9.9575seh
202.153MARIANI Davide40ITAEATON2:06:426:02 9.9557v1hWSL
203.4838LEBACQ Marc57BEL2:06:556:03 9.9331v2hWEZEMBEEK-OPPEM
204.4806FWHITE Elizabeth43GBR2:07:356:05 9.8810ai1
205.115HÉRICKS Thomas34BEL2:07:376:05 9.8776sehJEMEPPE-SUR-SAMBRE
206.4785FDURDURE Angélique Françoise36BELZATOPEK.BE2:07:436:05 9.8711ai1OUPEYE
207.4864FATTOUT Aurelie25BEL2:07:446:05 9.868dam
208.86FFAYT Virginie33BEL2:07:456:05 9.869dam
209.103GOFFIN Laurent42BELNÉANT2:08:196:07 9.8258v1hNAMUR-WÉPION
210.48D'ALTOE Laurent44BEL2:08:216:07 9.8259v1hBUVRINNES
211.12BLONDIAUX Philippe54BEL2:08:296:08 9.8132v2h
212.4876BRUNET David41BELSWDE2:08:396:08 9.7960v1hJETTE
213.4813HEMERYCK Michel44BELBJB2:09:486:11 9.7161v1hHOUDENG-AIMERIES
214.4881HUART Sebastien142:10:386:14 9.6577seh
215.72DEROY Philippe58BEL2:10:516:14 9.6333v2hVIESVILLE
216.4829FCRUTZEN Martine40BEL2:11:076:15 9.6112ai1BATTICE
217.171FMOUYARD Elodie41BELJE COURS POUR M2:11:106:15 9.6113ai1FALISOLLE
218.66DENAYER Yves46BELJE COURS POUR M2:11:106:15 9.6162v1hGERPINNES
219.152MANSY Frédéric44BEL2:11:456:17 9.5663v1hHYON
220.25FBRUNEEL Aurore25BEL2:11:456:17 9.5610damROUX
221.194FPULICI Francesca38BEL2:11:476:17 9.5614ai1
222.4787JACQUY Frederic38BEL2:11:476:17 9.5678seh
223.42FCOCHETEUX Pascale43BELJE COURS POUR M2:12:136:18 9.5315ai1VITRIVAL
224.55DE WILDE Frédéric38BEL2:12:156:18 9.5379sehGOZÉE
225.4844BAELDEN William15BEL2:12:466:20 9.4980seh
226.185PAYE Patrick38BEL2:12:536:20 9.4881sehNAMUR
227.8BELHALOUMI Sélim29BEL2:12:546:20 9.4882sehHAM SUR SAMBRE
228.4893KEDZIERSKI Michel37BEL2:12:576:20 9.4883sehWEMMEL
229.4887GALLO Fabrizio42BELJCPMF2:13:236:22 9.4564v1hBIESME
230.22FBRICMONT Virginie33BELDEFICIENTS CARO2:13:236:22 9.4511damMONTIGNIES-SUR -SAMBRE
231.4858ALEXANDRE Christian41BEL2:13:366:22 9.4365v1h
232.4841MEURRENS Yvon57BELRTT CHATELET2:14:066:24 9.4034v2hPONT DE LOUP
233.178NZONGA Ange39BELDEFICIENTS CARO2:14:226:24 9.3884sehMONT SUR MARCHIENNE
234.4851BOULANGER Joel56BELJC HSH2:14:526:26 9.3435v2hNALINNES
235.240VANHIESBECQ Pierre49BELJE COURS POUR 2:15:276:27 9.3066v1hMONTIGNIES / S/SAMBRE
236.4845FAYT Francois48BEL2:15:476:28 9.2867v1hNALINNES
237.212FSABATOVA Lucie33CZE2:16:186:30 9.2412damCARNIÈRES
238.4807REA Stephen47GBR2:16:516:31 9.2168v1h
239.14BOCLINVILLE Didier44BEL2:17:376:34 9.1669v1hHODY
240.4882BETREMIEUX Pascal392:17:376:34 9.1685seh
241.231FTOURNAY Dominique46BEL2:18:386:37 9.097ai2NAMUR
242.30CARIAT Alain55BEL2:18:546:37 9.0736v2hMONT/SUR/MARCHIENNE
243.180PARDAENS Michaël31BEL2:19:016:38 9.0686sehBRUXELLES
244.29CAPOBIANCO Damiano27ITA2:19:216:39 9.0487sehMONT-SUR-MARCHIENNE
245.61DELANGRE Baudouin46BEL2:20:056:41 9.0070v1hLIEGE
246.4865DURY Frederic29BEL2:20:536:43 8.9488seh
247.31CARPEZAT Axel36FRAAUCUN2:21:006:43 8.9489sehSAINT-GILLES
248.138LEMAL Christophe31BEL2:21:036:43 8.9390sehMONTIGNIES S/S
249.77FDOBBELAERE Julia57BEL2:21:106:44 8.933ai3CHARLEROI
250.4866FFRAIPONT Ingrid30BEL2:21:146:44 8.9213damMARCINELLE
DNF: did not finish; DSQ: disqualified; Speed in km/h
16/12/2017 - 11:10 - 301 Entries
ChronoRace - Electronic Timing SPRL
http://www.chronorace.be

Page 5 / 7  
Le semi-marathon de Charleroi
Jogging Charleroi, 26/06/2011, BEL
21km - Result
21km 
Category
PosNrNameAgeNATTeamTimeTkmMoy.PlaceNameCity
251.4786FRANSSEN Jacques58BELJOGGPLUS2:21:226:44 8.9137v2hFLORENNES
252.9BERG Nicolas55BEL2:22:296:48 8.8438v2hLIÈGE
253.134FLEBEAU Martine51BEL2:22:516:49 8.828ai2MONTIGNY-LE-TILLEUL
254.4825SCHEIRLINCKX Philippe41BELPOLCHA2:23:146:50 8.8071v1hGILLY
255.244VERVAEKE Willy52BEL2:24:116:52 8.7439v2hCOUILLET
256.4788VANDERAART Peter54NLD2:24:116:52 8.7440v2h
257.211FRUST Franciska54BEL2:24:386:54 8.719ai2
258.249WASILEWSKI Stephane43BEL2:24:436:54 8.7172v1hBRUXELLES
259.222SOUPART Thierry47BEL2:25:156:55 8.6873v1hBOUFFIOULX
260.4811PEREDA Jean-Philippe41BELARJ FLEURUS2:25:156:55 8.6774v1hFLEURUS
261.206ROGISTER Vincent43BELAXA TEAM2:25:396:57 8.6575v1hSOMBREFFE
262.4867DEMOL Olivier44BELJCPMF2:26:346:59 8.6076v1hCOUILLET
263.239FVANCALSTEREN Valerie34BEL2:27:197:01 8.5514damBOUFFIOULX
264.74FDESART Bernadette52BELJCPMF2:27:197:01 8.5510ai2MONTIGNY/LE/TILLEUL
265.73FDERUYVER Marie-Ange52BEL2:27:387:02 8.5411ai2
266.218FSEL Fabienne47BEL2:27:527:03 8.5212ai2
267.230FTORFS Christine55BEL2:28:057:04 8.514ai3NALINNES
268.80DOYEN Yvon61BEL2:28:117:04 8.5017v3hANDERLUES
269.67DEPAS Michel49BEL---2:28:227:04 8.4977v1hJEMEPPE-SUR-SAMBRE
270.195QUERTINMONT Franck44BELCH PROV HAINAUT2:29:567:09 8.4078v1hSARS-LA-BUISSIERE
271.4812BUCHTA Jean-Marie51BEL2:29:567:09 8.4041v2hLA LOUVIERE
272.97FGELBGRAS Valérie28BEL2:30:287:10 8.3715damWOLUWE-SAINT-PIERRE
273.53DE VALKENEER Christian49BEL2:30:367:11 8.3779v1hCHARLEROI
274.4802CASCIATO Joseph62BELJCPMF2:31:077:12 8.3418v3h
275.15BOLLATI Yannick44FRA2:32:277:16 8.2780v1hBRUXELLES
276.176NUYT Alexis32BEL2:32:347:16 8.2691sehWALHAIN-SAINT-PAUL
277.4816GAONE Michael40BEL2:32:497:17 8.2581v1hCHATELET
278.46FCROTTI Albine38BELJE COURS POUR M2:32:547:17 8.2416ai1LIGNY
279.174NEVRAUMONT Jean - Marc58BELJCPMF CHARLEROI2:33:337:19 8.2142v2hMARCINELLE
280.148MALHERBE Eric36BEL2:34:227:22 8.1692sehPETITE SOMME
281.143FLEROY Paulette60BEL2:35:347:25 8.105ai3ANDERLUES
282.217FSCHMITZ Hélène42BEL2:35:357:25 8.1017ai1MARCINELLE
283.4AUBRY Pierre50BEL2:35:517:26 8.0943v2hGOSSELIES
284.146LIÉNARD Didier42BEL2:36:457:28 8.0482v1hQUAREGNON
285.37CHERUY Marcel Cheruy59BEL2:38:177:33 7.9644v2h5651
286.110HANNARD Carl36BEL2:39:077:35 7.9293seh
287.90FOTIA Giuseppe62BEL2:42:197:44 7.7619v3hROUX
288.210RUELLE Marc46BELLA SOCIÉTÉ WALL2:42:297:45 7.7583v1hWALHAIN
289.4817NEVRAUMONT Didier50BELPOLCHA2:46:547:57 7.5545v2hMARCINELLE
290.4874DUSART Sebastien27BEL2:47:027:58 7.5494seh
291.4824GIACOMELLO Oreste56BEL2:52:058:12 7.3246v2h
292.149FMALORGIO Stéphanie30BEL2:54:248:19 7.2216damMARCINELLE
293.133LAVARINI Laurent40BEL2:55:308:22 7.1884v1hGOURDINNE
294.83FEMPRUNT Valerie39BEL2:55:308:22 7.1818ai1GOURDINNE
295.18BOUGARD Jean Philippe51BEL3:09:559:03 6.6347v2hCHATELET
DNF3ANTOINE Jean Marc39BELsehMARCINELLES
DNF76DIZIER Bernard45BELv1hNALINNES
DNF89FONTAINE Pol60BELv3hCHATELINEAU
DNF4834LEQUARRE Bertrand36BELWESTINGHOUSEsehHAM SUR HEURE
DNF4120NR 4120 XXXxxx
DNF: did not finish; DSQ: disqualified; Speed in km/h
16/12/2017 - 11:10 - 301 Entries
ChronoRace - Electronic Timing SPRL
http://www.chronorace.be

Page 6 / 7  
Le semi-marathon de Charleroi
Jogging Charleroi, 26/06/2011, BEL
21km - Result
21km 
Category
PosNrNameAgeNATTeamTimeTkmMoy.PlaceNameCity
DNF177FNUYTTEN Magali40BELai1COUILLET
DNF: did not finish; DSQ: disqualified; Speed in km/h
16/12/2017 - 11:10 - 301 Entries
ChronoRace - Electronic Timing SPRL
http://www.chronorace.be

Page 7 / 7